createdAt,value
2018-04-02T00:02:27.012Z,19.43
2018-04-02T00:04:54.527Z,19.80
2018-04-02T00:07:22.045Z,19.93
2018-04-02T00:09:49.591Z,19.23
2018-04-02T00:12:17.096Z,18.27
2018-04-02T00:14:44.635Z,19.30
2018-04-02T00:17:12.168Z,20.27
2018-04-02T00:19:39.675Z,21.13
2018-04-02T00:22:07.189Z,21.80
2018-04-02T00:24:34.726Z,20.60
2018-04-02T00:27:02.262Z,21.20
2018-04-02T00:29:29.818Z,20.73
2018-04-02T00:31:57.546Z,21.33
2018-04-02T00:34:25.038Z,21.40
2018-04-02T00:36:52.563Z,22.00
2018-04-02T00:39:20.331Z,21.40
2018-04-02T00:41:47.854Z,21.97
2018-04-02T00:44:15.381Z,20.90
2018-04-02T00:46:42.909Z,21.00
2018-04-02T00:49:10.423Z,22.00
2018-04-02T00:51:37.928Z,21.63
2018-04-02T00:54:05.486Z,20.60
2018-04-02T00:56:33.013Z,20.23
2018-04-02T00:59:00.537Z,20.10
2018-04-02T01:01:28.091Z,20.27
2018-04-02T01:03:55.602Z,20.57
2018-04-02T01:06:23.105Z,20.50
2018-04-02T01:08:50.657Z,19.03
2018-04-02T01:11:18.413Z,19.00
2018-04-02T01:13:45.922Z,21.37
2018-04-02T01:16:13.468Z,19.20
2018-04-02T01:18:40.994Z,19.53
2018-04-02T01:21:08.557Z,20.77
2018-04-02T01:23:36.129Z,20.07
2018-04-02T01:26:04.102Z,19.43
2018-04-02T01:28:31.684Z,18.80
2018-04-02T01:30:59.220Z,19.47
2018-04-02T01:33:26.712Z,19.67
2018-04-02T01:35:54.214Z,20.07
2018-04-02T01:38:21.753Z,21.03
2018-04-02T01:40:49.256Z,19.37
2018-04-02T01:43:16.789Z,20.93
2018-04-02T01:45:45.209Z,21.10
2018-04-02T01:48:12.704Z,19.30
2018-04-02T01:50:40.204Z,20.63
2018-04-02T01:53:07.727Z,20.30
2018-04-02T01:55:35.528Z,21.23
2018-04-02T01:58:03.310Z,21.40
2018-04-02T02:00:31.924Z,21.40
2018-04-02T02:02:59.761Z,21.10
2018-04-02T02:05:27.613Z,21.60
2018-04-02T02:07:55.169Z,21.00
2018-04-02T02:10:22.673Z,20.63
2018-04-02T02:12:50.190Z,21.30
2018-04-02T02:15:17.958Z,21.83
2018-04-02T02:17:45.724Z,21.10
2018-04-02T02:20:13.221Z,21.47
2018-04-02T02:22:40.759Z,22.90
2018-04-02T02:25:08.252Z,21.53
2018-04-02T02:27:35.765Z,23.27
2018-04-02T02:30:03.300Z,22.47
2018-04-02T02:32:30.801Z,23.97
2018-04-02T02:34:58.378Z,22.63
2018-04-02T02:37:25.860Z,24.80
2018-04-02T02:39:53.382Z,23.63
2018-04-02T02:42:20.908Z,24.90
2018-04-02T02:44:48.697Z,24.43
2018-04-02T02:47:16.203Z,25.80
2018-04-02T02:49:43.720Z,24.20
2018-04-02T02:52:11.256Z,24.80
2018-04-02T02:54:38.759Z,25.40
2018-04-02T02:57:06.271Z,24.50
2018-04-02T02:59:33.795Z,24.40
2018-04-02T03:02:01.303Z,24.20
2018-04-02T03:04:28.808Z,24.27
2018-04-02T03:06:56.329Z,24.93
2018-04-02T03:09:24.087Z,24.67
2018-04-02T03:11:51.601Z,23.87
2018-04-02T03:14:19.152Z,26.43
2018-04-02T03:16:46.983Z,26.00
2018-04-02T03:19:14.535Z,25.70
2018-04-02T03:21:42.069Z,25.77
2018-04-02T03:24:09.569Z,24.10
2018-04-02T03:26:37.107Z,25.40
2018-04-02T03:29:04.671Z,24.93
2018-04-02T03:31:32.241Z,26.27
2018-04-02T03:33:59.747Z,26.07
2018-04-02T03:36:27.275Z,24.40
2018-04-02T03:38:54.793Z,25.43
2018-04-02T03:41:22.314Z,25.80
2018-04-02T03:43:49.849Z,26.00
2018-04-02T03:46:17.360Z,24.87
2018-04-02T03:48:45.164Z,26.00
2018-04-02T03:51:12.714Z,25.03
2018-04-02T03:53:40.216Z,25.80
2018-04-02T03:56:07.810Z,25.80
2018-04-02T03:58:35.362Z,24.63
2018-04-02T04:01:02.871Z,26.47
2018-04-02T04:03:30.534Z,26.30
2018-04-02T04:05:58.088Z,24.93
2018-04-02T04:08:25.593Z,27.10
2018-04-02T04:10:53.202Z,26.47
2018-04-02T04:13:20.798Z,26.17
2018-04-02T04:15:48.635Z,27.17
2018-04-02T04:18:16.155Z,25.50
2018-04-02T04:20:43.724Z,25.33
2018-04-02T04:23:11.536Z,25.30
2018-04-02T04:25:39.055Z,25.30
2018-04-02T04:28:06.583Z,25.70
2018-04-02T04:30:34.092Z,26.57
2018-04-02T04:33:02.027Z,24.70
2018-04-02T04:35:29.618Z,25.40
2018-04-02T04:37:57.118Z,24.40
2018-04-02T04:40:24.760Z,26.60
2018-04-02T04:42:52.308Z,25.80
2018-04-02T04:45:19.832Z,26.13
2018-04-02T04:47:47.385Z,26.33
2018-04-02T04:50:14.975Z,25.33
2018-04-02T04:52:42.476Z,26.60
2018-04-02T04:55:09.995Z,25.13
2018-04-02T04:57:37.557Z,24.60
2018-04-02T05:00:05.359Z,26.50
2018-04-02T05:02:32.871Z,23.97
2018-04-02T05:05:00.389Z,24.40
2018-04-02T05:07:27.927Z,25.03
2018-04-02T05:09:55.456Z,24.87
2018-04-02T05:12:22.984Z,25.30
2018-04-02T05:14:50.481Z,23.80
2018-04-02T05:17:18.007Z,23.37
2018-04-02T05:19:45.831Z,24.40
2018-04-02T05:22:13.370Z,22.57
2018-04-02T05:24:40.895Z,22.77
2018-04-02T05:27:08.395Z,23.27
2018-04-02T05:29:36.026Z,23.77
2018-04-02T05:32:03.516Z,22.63
2018-04-02T05:34:31.049Z,23.63
2018-04-02T05:36:58.616Z,25.00
2018-04-02T05:39:26.134Z,23.10
2018-04-02T05:41:53.725Z,23.20
2018-04-02T05:44:21.544Z,23.23
2018-04-02T05:46:49.081Z,22.77
2018-04-02T05:49:16.617Z,23.10
2018-04-02T05:51:44.141Z,22.87
2018-04-02T05:54:11.664Z,23.63
2018-04-02T05:56:39.198Z,23.70
2018-04-02T05:59:06.745Z,22.27
2018-04-02T06:01:34.243Z,24.70
2018-04-02T06:04:02.037Z,24.87
2018-04-02T06:06:29.628Z,24.17
2018-04-02T06:08:57.138Z,24.30
2018-04-02T06:11:24.687Z,22.90
2018-04-02T06:13:52.574Z,21.90
2018-04-02T06:16:20.246Z,21.80
2018-04-02T06:18:47.778Z,21.47
2018-04-02T06:21:15.315Z,22.60
2018-04-02T06:23:42.905Z,21.80
2018-04-02T06:26:11.020Z,22.30
2018-04-02T06:28:38.533Z,20.70
2018-04-02T06:31:06.105Z,22.10
2018-04-02T06:33:33.681Z,21.57
2018-04-02T06:36:01.320Z,21.03
2018-04-02T06:38:28.874Z,22.17
2018-04-02T06:40:56.410Z,22.50
2018-04-02T06:43:23.916Z,22.00
2018-04-02T06:45:51.413Z,20.37
2018-04-02T06:48:18.970Z,21.63
2018-04-02T06:50:47.418Z,21.47
2018-04-02T06:53:14.927Z,21.60
2018-04-02T06:55:42.470Z,22.53
2018-04-02T06:58:09.967Z,21.40
2018-04-02T07:00:37.487Z,20.23
2018-04-02T07:03:05.324Z,21.73
2018-04-02T07:05:32.907Z,21.67
2018-04-02T07:08:00.450Z,20.27
2018-04-02T07:10:27.969Z,20.50
2018-04-02T07:12:55.525Z,20.77
2018-04-02T07:15:23.054Z,21.23
2018-04-02T07:17:50.891Z,21.77
2018-04-02T07:20:18.426Z,21.20
2018-04-02T07:22:46.596Z,19.77
2018-04-02T07:25:14.106Z,20.60
2018-04-02T07:27:41.703Z,20.30
2018-04-02T07:30:09.302Z,19.80
2018-04-02T07:32:36.811Z,20.63
2018-04-02T07:35:04.329Z,19.43
2018-04-02T07:37:31.827Z,20.20
2018-04-02T07:39:59.356Z,18.80
2018-04-02T07:42:26.865Z,19.60
2018-04-02T07:44:54.671Z,18.90
2018-04-02T07:47:22.214Z,19.30
2018-04-02T07:49:49.735Z,20.10
2018-04-02T07:52:17.336Z,19.87
2018-04-02T07:54:44.860Z,18.13
2018-04-02T07:57:12.414Z,19.70
2018-04-02T07:59:40.245Z,19.23
2018-04-02T08:02:07.822Z,18.90
2018-04-02T08:04:35.338Z,19.17
2018-04-02T08:07:02.871Z,19.83
2018-04-02T08:09:30.512Z,20.10
2018-04-02T08:11:58.048Z,19.80
2018-04-02T08:14:25.622Z,19.47
2018-04-02T08:16:53.485Z,18.83
2018-04-02T08:19:21.010Z,18.10
2018-04-02T08:21:48.593Z,19.00
2018-04-02T08:24:16.095Z,17.93
2018-04-02T08:26:43.925Z,19.00
2018-04-02T08:29:11.474Z,18.17
2018-04-02T08:31:39.014Z,17.80
2018-04-02T08:34:06.543Z,18.10
2018-04-02T08:36:34.069Z,17.50
2018-04-02T08:39:01.701Z,18.27
2018-04-02T08:41:29.490Z,17.03
2018-04-02T08:43:57.055Z,17.27
2018-04-02T08:46:26.330Z,16.70
2018-04-02T08:48:53.869Z,18.07
2018-04-02T08:51:21.403Z,16.53
2018-04-02T08:53:48.929Z,17.50
2018-04-02T08:56:16.482Z,17.63
2018-04-02T08:58:44.007Z,18.13
2018-04-02T09:01:11.668Z,16.90
2018-04-02T09:03:39.228Z,16.87
2018-04-02T09:06:06.729Z,16.27
2018-04-02T09:08:34.329Z,17.50
2018-04-02T09:11:02.178Z,17.23
2018-04-02T09:13:29.748Z,18.80
2018-04-02T09:15:57.278Z,17.70
2018-04-02T09:18:25.170Z,17.87
2018-04-02T09:20:52.727Z,17.67
2018-04-02T09:23:20.261Z,16.50
2018-04-02T09:25:47.782Z,17.60
2018-04-02T09:28:15.373Z,16.43
2018-04-02T09:30:43.006Z,18.03
2018-04-02T09:33:10.715Z,17.03
2018-04-02T09:35:38.642Z,17.70
2018-04-02T09:38:06.328Z,15.53
2018-04-02T09:40:33.964Z,14.60
2018-04-02T09:43:01.791Z,15.10
2018-04-02T09:45:29.322Z,14.53
2018-04-02T09:47:57.147Z,14.10
2018-04-02T09:50:24.663Z,14.80
2018-04-02T09:52:52.206Z,14.83
2018-04-02T09:55:20.507Z,15.00
2018-04-02T09:57:48.087Z,14.03
2018-04-02T10:00:15.667Z,14.00
2018-04-02T10:02:45.993Z,14.87
2018-04-02T10:05:13.644Z,15.10
2018-04-02T10:07:41.154Z,15.03
2018-04-02T10:10:08.994Z,13.73
2018-04-02T10:12:36.926Z,13.67
2018-04-02T10:15:04.435Z,14.20
2018-04-02T10:17:31.998Z,14.23
2018-04-02T10:19:59.533Z,14.87
2018-04-02T10:22:27.108Z,14.50
2018-04-02T10:24:54.658Z,13.93
2018-04-02T10:27:22.259Z,14.40
2018-04-02T10:29:49.829Z,13.87
2018-04-02T10:32:17.443Z,14.07
2018-04-02T10:34:44.989Z,13.33
2018-04-02T10:37:21.026Z,13.47
2018-04-02T10:39:49.211Z,14.23
2018-04-02T10:42:16.950Z,14.07
2018-04-02T10:44:44.516Z,13.00
2018-04-02T10:47:12.033Z,13.30
2018-04-02T10:49:40.596Z,12.90
2018-04-02T10:52:12.638Z,12.83
2018-04-02T10:54:45.997Z,13.50
2018-04-02T10:57:17.271Z,11.93
2018-04-02T10:59:46.047Z,12.93
2018-04-02T11:02:16.234Z,13.70
2018-04-02T11:04:44.305Z,13.27
2018-04-02T11:07:11.834Z,13.13
2018-04-02T11:09:41.515Z,13.77
2018-04-02T11:12:09.412Z,13.73
2018-04-02T11:14:39.005Z,13.13
2018-04-02T11:17:12.848Z,14.37
2018-04-02T11:19:40.381Z,13.80
2018-04-02T11:22:07.913Z,13.00
2018-04-02T11:24:39.771Z,14.23
2018-04-02T11:27:07.299Z,14.10
2018-04-02T11:29:34.830Z,14.30
2018-04-02T11:32:02.404Z,14.43
2018-04-02T11:34:30.148Z,13.70
2018-04-02T11:36:57.706Z,13.70
2018-04-02T11:39:25.325Z,13.43
2018-04-02T11:41:52.903Z,14.20
2018-04-02T11:44:20.406Z,14.23
2018-04-02T11:46:47.938Z,14.00
2018-04-02T11:49:15.459Z,14.17
2018-04-02T11:51:42.995Z,14.07
2018-04-02T11:54:10.553Z,13.50
2018-04-02T11:56:38.107Z,14.37
2018-04-02T11:59:05.675Z,14.47
2018-04-02T12:01:33.274Z,13.63
2018-04-02T12:04:00.817Z,14.37
2018-04-02T12:06:28.472Z,13.40
2018-04-02T12:08:56.090Z,14.60
2018-04-02T12:11:23.653Z,13.93
2018-04-02T12:13:51.177Z,14.07
2018-04-02T12:16:18.772Z,14.03
2018-04-02T12:18:46.296Z,13.20
2018-04-02T12:21:13.856Z,13.07
2018-04-02T12:23:41.416Z,13.60
2018-04-02T12:26:08.932Z,14.20
2018-04-02T12:28:36.492Z,14.80
2018-04-02T12:31:04.100Z,13.07
2018-04-02T12:33:31.671Z,13.50
2018-04-02T12:35:59.187Z,13.10
2018-04-02T12:38:26.697Z,15.00
2018-04-02T12:40:54.258Z,14.50
2018-04-02T12:43:21.826Z,13.80
2018-04-02T12:45:49.387Z,14.30
2018-04-02T12:48:16.944Z,14.57
2018-04-02T12:50:44.498Z,14.60
2018-04-02T12:53:12.003Z,14.77
2018-04-02T12:55:39.856Z,14.70
2018-04-02T12:58:07.414Z,15.63
2018-04-02T13:00:34.944Z,15.10
2018-04-02T13:03:02.508Z,14.80
2018-04-02T13:05:30.806Z,15.00
2018-04-02T13:07:58.342Z,15.03
2018-04-02T13:10:25.872Z,16.23
2018-04-02T13:12:53.407Z,15.67
2018-04-02T13:15:20.968Z,16.70
2018-04-02T13:17:48.515Z,17.20
2018-04-02T13:20:18.329Z,15.83
2018-04-02T13:22:45.850Z,15.70
2018-04-02T13:25:13.381Z,16.03
2018-04-02T13:27:40.992Z,16.53
2018-04-02T13:30:08.531Z,15.30
2018-04-02T13:32:36.341Z,15.80
2018-04-02T13:35:04.009Z,15.53
2018-04-02T13:37:31.543Z,16.60
2018-04-02T13:39:59.151Z,15.80
2018-04-02T13:42:26.718Z,15.80
2018-04-02T13:44:54.299Z,15.60
2018-04-02T13:47:21.900Z,15.70
2018-04-02T13:49:49.525Z,16.40
2018-04-02T13:52:17.951Z,16.33
2018-04-02T13:54:45.524Z,17.07
2018-04-02T13:57:13.120Z,15.80
2018-04-02T13:59:40.651Z,16.87
2018-04-02T14:02:08.244Z,17.57
2018-04-02T14:04:36.014Z,17.37
2018-04-02T14:07:03.787Z,17.43
2018-04-02T14:09:31.371Z,17.53
2018-04-02T14:11:59.118Z,17.90
2018-04-02T14:14:26.926Z,17.60
2018-04-02T14:16:54.452Z,20.13
2018-04-02T14:19:21.981Z,18.63
2018-04-02T14:21:49.533Z,18.50
2018-04-02T14:24:17.403Z,18.50
2018-04-02T14:26:45.034Z,19.00
2018-04-02T14:29:22.357Z,17.97
2018-04-02T14:31:49.967Z,21.00
2018-04-02T14:34:17.529Z,19.40
2018-04-02T14:36:45.051Z,19.83
2018-04-02T14:39:12.770Z,20.23
2018-04-02T14:41:40.400Z,19.67
2018-04-02T14:44:08.425Z,21.00
2018-04-02T14:46:36.092Z,21.67
2018-04-02T14:49:03.595Z,22.23
2018-04-02T14:51:31.136Z,21.67
2018-04-02T14:53:58.770Z,23.30
2018-04-02T14:56:26.295Z,22.50
2018-04-02T14:58:53.843Z,21.40
2018-04-02T15:01:21.368Z,21.77
2018-04-02T15:03:48.996Z,22.50
2018-04-02T15:06:16.549Z,23.17
2018-04-02T15:08:44.446Z,23.00
2018-04-02T15:11:12.004Z,22.53
2018-04-02T15:13:39.549Z,23.23
2018-04-02T15:16:07.949Z,23.50
2018-04-02T15:18:35.487Z,22.53
2018-04-02T15:21:03.062Z,23.07
2018-04-02T15:23:30.615Z,23.47
2018-04-02T15:25:58.278Z,24.50
2018-04-02T15:28:25.801Z,24.90
2018-04-02T15:30:53.452Z,24.50
2018-04-02T15:33:21.872Z,23.97
2018-04-02T15:35:49.443Z,25.03
2018-04-02T15:38:17.933Z,23.90
2018-04-02T15:40:45.431Z,24.90
2018-04-02T15:43:13.353Z,25.50
2018-04-02T15:45:41.213Z,26.43
2018-04-02T15:48:08.770Z,24.10
2018-04-02T15:50:36.551Z,24.00
2018-04-02T15:53:04.106Z,25.40
2018-04-02T15:55:31.656Z,23.77
2018-04-02T15:58:01.006Z,24.90
2018-04-02T16:00:28.707Z,26.77
2018-04-02T16:02:56.298Z,25.83
2018-04-02T16:05:24.054Z,26.50
2018-04-02T16:07:51.720Z,25.10
2018-04-02T16:10:19.483Z,26.40
2018-04-02T16:12:47.119Z,25.03
2018-04-02T16:15:14.645Z,24.33
2018-04-02T16:17:42.252Z,26.37
2018-04-02T16:20:09.784Z,25.40
2018-04-02T16:22:37.299Z,25.57
2018-04-02T16:25:04.950Z,25.47
2018-04-02T16:27:32.443Z,26.70
2018-04-02T16:29:59.946Z,25.93
2018-04-02T16:32:27.538Z,25.90
2018-04-02T16:34:55.072Z,24.73
2018-04-02T16:37:22.655Z,25.60
2018-04-02T16:39:50.190Z,25.43
2018-04-02T16:42:17.749Z,25.57
2018-04-02T16:44:45.312Z,26.40
2018-04-02T16:47:12.841Z,26.13
2018-04-02T16:49:40.399Z,25.87
2018-04-02T16:52:07.932Z,26.00
2018-04-02T16:54:35.474Z,27.70
2018-04-02T16:57:03.064Z,26.63
2018-04-02T16:59:30.993Z,28.03
2018-04-02T17:01:58.555Z,30.90
2018-04-02T17:04:26.272Z,29.10
2018-04-02T17:06:55.149Z,28.87
2018-04-02T17:09:22.709Z,28.77
2018-04-02T17:11:50.275Z,27.90
2018-04-02T17:14:18.105Z,26.77
2018-04-02T17:16:45.640Z,26.23
2018-04-02T17:19:13.204Z,25.33
2018-04-02T17:21:41.018Z,28.17
2018-04-02T17:24:08.616Z,27.97
2018-04-02T17:26:36.283Z,28.43
2018-04-02T17:29:03.951Z,28.70
2018-04-02T17:31:31.530Z,28.30
2018-04-02T17:33:59.146Z,28.03
2018-04-02T17:36:26.694Z,28.87
2018-04-02T17:38:54.530Z,28.53
2018-04-02T17:41:22.398Z,28.33
2018-04-02T17:43:50.161Z,30.90
2018-04-02T17:46:17.782Z,29.00
2018-04-02T17:48:45.298Z,28.07
2018-04-02T17:51:13.049Z,33.23
2018-04-02T17:53:41.021Z,29.33
2018-04-02T17:56:08.639Z,29.30
2018-04-02T17:58:36.162Z,30.73
2018-04-02T18:01:03.752Z,32.97
2018-04-02T18:03:31.282Z,29.90
2018-04-02T18:05:58.949Z,28.23
2018-04-02T18:08:26.954Z,28.93
2018-04-02T18:10:54.535Z,30.07
2018-04-02T18:13:22.068Z,29.40
2018-04-02T18:15:49.586Z,28.43
2018-04-02T18:18:18.278Z,30.10
2018-04-02T18:20:46.303Z,31.07
2018-04-02T18:23:14.105Z,30.97
2018-04-02T18:25:41.655Z,29.47
2018-04-02T18:28:09.339Z,29.20
2018-04-02T18:30:36.904Z,27.23
2018-04-02T18:33:04.504Z,30.67
2018-04-02T18:35:32.073Z,28.43
2018-04-02T18:37:59.615Z,29.23
2018-04-02T18:40:27.142Z,29.90
2018-04-02T18:42:54.740Z,28.93
2018-04-02T18:45:22.316Z,31.00
2018-04-02T18:47:49.887Z,30.00
2018-04-02T18:50:17.448Z,30.30
2018-04-02T18:52:44.989Z,29.37
2018-04-02T18:55:13.666Z,28.40
2018-04-02T18:57:41.213Z,28.33
2018-04-02T19:02:40.873Z,28.23
2018-04-02T19:05:09.092Z,28.73
2018-04-02T19:07:37.057Z,29.60
2018-04-02T19:13:07.104Z,29.27
2018-04-02T19:15:34.658Z,27.23
2018-04-02T19:18:02.181Z,27.60
2018-04-02T19:20:30.050Z,28.70
2018-04-02T19:23:03.952Z,26.90
2018-04-02T19:25:32.924Z,29.80
2018-04-02T19:28:00.477Z,28.10
2018-04-02T19:30:29.141Z,30.03
2018-04-02T19:32:58.839Z,28.47
2018-04-02T19:35:26.546Z,27.70
2018-04-02T19:37:54.608Z,26.97
2018-04-02T19:40:27.211Z,28.50
2018-04-02T19:45:43.189Z,29.83
2018-04-02T19:48:10.976Z,29.47
2018-04-02T19:50:38.622Z,28.40
2018-04-02T19:53:06.173Z,29.93
2018-04-02T19:55:33.682Z,30.20
2018-04-02T19:58:02.648Z,29.67
2018-04-02T20:00:30.397Z,30.93
2018-04-02T20:02:57.936Z,29.53
2018-04-02T20:05:25.459Z,29.60
2018-04-02T20:07:53.603Z,29.23
2018-04-02T20:10:21.225Z,29.30
2018-04-02T20:12:48.908Z,28.70
2018-04-02T20:15:16.447Z,29.00
2018-04-02T20:17:44.481Z,28.47
2018-04-02T20:20:12.021Z,30.20
2018-04-02T20:22:39.539Z,27.63
2018-04-02T20:25:07.630Z,28.00
2018-04-02T20:27:39.781Z,27.57
2018-04-02T20:30:09.769Z,28.50
2018-04-02T20:32:40.669Z,27.47
2018-04-02T20:35:08.707Z,27.63
2018-04-02T20:37:40.604Z,36.53
2018-04-02T20:40:10.420Z,33.83
2018-04-02T20:42:37.964Z,32.43
2018-04-02T20:45:05.723Z,27.63
2018-04-02T20:47:33.280Z,28.87
2018-04-02T20:50:00.849Z,27.70
2018-04-02T20:52:28.443Z,30.30
2018-04-02T20:54:56.269Z,27.33
2018-04-02T20:57:23.952Z,27.90
2018-04-02T20:59:51.547Z,27.07
2018-04-02T21:02:19.324Z,28.37
2018-04-02T21:04:46.921Z,27.80
2018-04-02T21:07:14.653Z,26.90
2018-04-02T21:09:42.173Z,28.80
2018-04-02T21:12:09.723Z,27.87
2018-04-02T21:14:37.271Z,26.60
2018-04-02T21:17:04.816Z,26.57
2018-04-02T21:19:32.352Z,27.30
2018-04-02T21:21:59.918Z,25.63
2018-04-02T21:24:27.538Z,26.93
2018-04-02T21:26:55.376Z,28.10
2018-04-02T21:29:23.134Z,26.80
2018-04-02T21:31:50.733Z,27.53
2018-04-02T21:34:18.265Z,27.13
2018-04-02T21:36:46.322Z,28.43
2018-04-02T21:39:13.894Z,27.37
2018-04-02T21:41:41.489Z,25.33
2018-04-02T21:44:09.139Z,26.57
2018-04-02T21:46:36.807Z,25.50
2018-04-02T21:49:06.543Z,26.70
2018-04-02T21:51:34.077Z,27.67
2018-04-02T21:54:01.799Z,25.87
2018-04-02T21:56:29.342Z,27.30
2018-04-02T21:58:56.858Z,27.17
2018-04-02T22:01:24.707Z,25.63
2018-04-02T22:03:52.624Z,25.77
2018-04-02T22:06:31.951Z,26.10
2018-04-02T22:08:59.466Z,25.03
2018-04-02T22:11:27.009Z,26.87
2018-04-02T22:13:54.560Z,26.97
2018-04-02T22:16:22.059Z,25.67
2018-04-02T22:18:49.822Z,25.70
2018-04-02T22:21:17.376Z,26.00
2018-04-02T22:23:44.870Z,25.00
2018-04-02T22:26:12.707Z,25.30
2018-04-02T22:28:40.265Z,23.43
2018-04-02T22:31:07.814Z,25.63
2018-04-02T22:33:35.363Z,28.97
2018-04-02T22:36:02.910Z,27.30
2018-04-02T22:38:30.526Z,25.13
2018-04-02T22:40:58.062Z,25.10
2018-04-02T22:43:26.463Z,26.30
2018-04-02T22:45:53.993Z,25.00
2018-04-02T22:48:21.533Z,26.60
2018-04-02T22:50:49.255Z,24.30
2018-04-02T22:53:16.859Z,24.63
2018-04-02T22:55:44.414Z,25.77
2018-04-02T22:58:12.057Z,24.97
2018-04-02T23:00:40.195Z,25.20
2018-04-02T23:03:08.066Z,24.80
2018-04-02T23:05:35.650Z,25.07
2018-04-02T23:08:03.175Z,25.50
2018-04-02T23:10:30.690Z,25.53
2018-04-02T23:12:58.225Z,23.40
2018-04-02T23:15:25.827Z,22.93
2018-04-02T23:17:53.343Z,24.63
2018-04-02T23:20:20.876Z,23.77
2018-04-02T23:22:52.275Z,34.67
2018-04-02T23:25:19.815Z,26.17
2018-04-02T23:27:47.360Z,28.37
2018-04-02T23:30:14.872Z,23.90
2018-04-02T23:32:42.372Z,25.20
2018-04-02T23:35:09.928Z,28.60
2018-04-02T23:37:37.448Z,26.50
2018-04-02T23:40:04.964Z,23.27
2018-04-02T23:42:32.478Z,23.77
2018-04-02T23:45:00.287Z,24.37
2018-04-02T23:47:27.807Z,23.50
2018-04-02T23:49:55.409Z,23.07
2018-04-02T23:52:22.933Z,22.33
2018-04-02T23:54:50.465Z,23.23
2018-04-02T23:57:18.029Z,23.60
2018-04-02T23:59:45.542Z,22.03
